• Join FlightAware (Why Join?)
  • Login
  • US Flag 
02:20PM EDT


 

Airport Tracker/Info


-or-


 

Live Flight TrackerFlight Track Log ✈ PDT4166 ✈ 26-Jul-2013 ✈ KSYR - KPHL

Flight Track Log - Related Links

Times and Time Zones

All times are in EDT time to prevent confusion due to time zone crossing. See the PDT4166 flight status page for this flight to view local times or setup timezone preferences in your user account.

Time Position Orientation Groundspeed Altitude Reporting Facility
EDT Latitude Longitude Course Direction KTS MPH feet Rate Location/Type
07:27PM 43.0936 -76.1736 246° West 142 163 3,200  Level Boston Center
07:28PM 43.0675 -76.2119 227° Southwest 136 157 4,600 1,260 Climbing Boston Center
07:29PM 42.9322 -76.2849 226° Southwest  Level FlightAware Approximate
07:30PM 42.8816 -76.3558 226° Southwest  Level FlightAware Approximate
07:30PM 43.0017 -76.3025 225° Southwest 156 180 7,400  Level New York Center
07:31PM 42.8378 -76.4288 216° Southwest  Level FlightAware Approximate
07:31PM 42.9747 -76.3428 228° Southwest 156 180 8,600  Level New York Center
07:32PM 42.9417 -76.3853 223° Southwest 156 180 9,900 660 Climbing New York Center
07:33PM 42.8983 -76.4239 213° Southwest 173 199 10,000 480 Climbing New York Center
07:34PM 42.8444 -76.4589 205° Southwest 203 234 10,900 900 Climbing New York Center
07:35PM 42.7917 -76.4344 161° South 194 223 11,900 960 Climbing New York Center
07:36PM 42.7389 -76.4072 159° South 194 223 12,900 960 Climbing New York Center
07:37PM 42.6883 -76.3775 157° South 199 229 13,900 960 Climbing New York Center
07:38PM 42.6372 -76.3561 163° South 199 229 14,900 960 Climbing New York Center
07:39PM 42.5864 -76.3292 159° South 199 229 15,900 540 Climbing New York Center
07:40PM 42.5314 -76.3019 160° South 204 235 16,000  Climbing New York Center
07:41PM 42.4728 -76.2689 157° South 210 242 16,000  Level New York Center
07:42PM 42.4094 -76.2411 162° South 227 261 16,000  Level New York Center
07:43PM 42.3444 -76.2078 159° South 245 282 16,000  Level New York Center
07:44PM 42.2850 -76.1831 163° South 245 282 16,000  Level New York Center
07:45PM 42.2219 -76.1528 160° South 245 282 16,000 -360 Level New York Center
07:46PM 42.1528 -76.1164 159° South 250 288 15,300 -840 Descending New York Center
07:47PM 42.0814 -76.0825 161° South 264 304 14,400 -960 Descending New York Center
07:48PM 41.9997 -76.0453 161° South 274 315 13,400 -900 Descending New York Center
07:49PM 41.9367 -76.0153 161° South 279 321 12,600 -900 Descending New York Center
07:50PM 41.8653 -75.9817 161° South 279 321 11,700 -900 Descending New York Center
07:51PM 41.7878 -75.9422 159° South 274 315 10,900 -840 Descending New York Center
07:52PM 41.7167 -75.9061 159° South 274 315 10,100 -840 Descending New York Center
07:53PM 41.6494 -75.8706 158° South 274 315 9,300 -720 Descending New York Center
07:54PM 41.5861 -75.8381 159° South 274 315 8,700 -660 Descending New York Center
07:55PM 41.5086 -75.8017 161° South 263 303 8,000 -360 Descending New York Center
07:56PM 41.4411 -75.7717 162° South 263 303 8,000  Level New York Center
07:57PM 41.3775 -75.7475 164° South 258 297 8,000  Level New York Center
07:58PM 41.3142 -75.7208 162° South 253 291 8,000  Level New York Center
07:59PM 41.2528 -75.6914 160° South 242 278 8,000  Level New York Center
08:00PM 41.1897 -75.6594 159° South 242 278 8,000  Level New York Center
08:02PM 41.1153 -75.6235 160° South  Level FlightAware Approximate
08:06PM 40.8000 -75.4833 217° Southwest 244 281 8,000  Level Philadelphia TRACON
08:07PM 40.7333 -75.4667 169° South 250 288 7,400 -720 Descending Philadelphia TRACON
08:08PM 40.6667 -75.4667 180° South 262 302 6,600 -780 Descending Philadelphia TRACON
08:09PM 40.7043 -75.4500 180° South  Level FlightAware Approximate
08:09PM 40.5833 -75.4667 180° South 265 305 5,900  Level Philadelphia TRACON
08:10PM 40.6468 -75.4667 180° South  Level FlightAware Approximate
08:10PM 40.5167 -75.4500 169° South 261 300 5,200  Level Philadelphia TRACON
08:11PM 40.5881 -75.4786 217° Southwest  Level FlightAware Approximate
08:11PM 40.4500 -75.4333 169° South 252 290 5,000  Level Philadelphia TRACON
08:12PM 40.3833 -75.4167 169° South 238 274 5,000  Level Philadelphia TRACON
08:13PM 40.3167 -75.4000 169° South 237 273 5,000 -360 Level Philadelphia TRACON
08:14PM 40.2500 -75.3833 169° South 247 284 4,300 -540 Descending Philadelphia TRACON
08:15PM 40.1833 -75.3667 169° South 247 284 4,000 -540 Descending Philadelphia TRACON
08:16PM 40.1333 -75.3333 153° Southeast 234 269 3,300 -540 Descending Philadelphia TRACON
08:17PM 40.1000 -75.2833 131° Southeast 208 239 3,000 -180 Descending Philadelphia TRACON
08:18PM 40.0667 -75.2167 123° Southeast 210 242 3,000  Level Philadelphia TRACON
08:19PM 40.0333 -75.1500 123° Southeast 208 239 3,000  Level Philadelphia TRACON
08:20PM 40.0167 -75.0833 108° East 183 211 3,000 -300 Level Philadelphia TRACON
08:21PM 39.9833 -75.0667 159° South 170 196 2,500 -540 Descending Philadelphia TRACON
08:22PM 39.9333 -75.0833 194° South 188 216 2,000 -600 Descending Philadelphia TRACON
08:23PM 39.9000 -75.1167 217° Southwest 152 175 1,400 -600 Descending Philadelphia TRACON
08:24PM 39.8833 -75.1667 247° West 108 124 800 -600 Descending Philadelphia TRACON
08:25PM 39.8833 -75.2000 270° West 111 128 200 -600 Descending Philadelphia TRACON